Maersk Constellation — WRYJ — position and weather

sailwx.info

Track history (hours):
 
Tides and Currents Weather Stations Pressure Air Temp Water Temp Dewpoint Dewpoint Depression Visibility Wind Speed Wind Dir Waves Ship Positions

Maersk Constellation

Owner: MAERSK LINES LIMITED, Norfolk, VA. More information available from US FCC via Universal Licensing System and Coast Guard Vessel Documentation Center.

Last reported at 2017-Mar-06 15:27 UTC. Time now 2017-Mar-26 19:02 UTC.
Position N 18°04' W 063°05'.
Warning: this ship's position is 20 days out of date.

Type: Cargo ship. MMSI: 367477000.

Date/timePositionNaut miles runAvg speedWind from/ knotsBaromVisibWave heightAir tempDewpointWater temp
2017-Mar-06 15:27N 18°04' W 063°05'0 0.0
2017-Mar-06 14:27N 18°04' W 063°05'0 0.0
2017-Mar-06 13:30N 18°04' W 063°05'0 0.0
2017-Mar-06 12:30N 18°04' W 063°05'0 0.0
2017-Mar-06 11:30N 18°04' W 063°05'0 0.0
2017-Mar-06 10:33N 18°04' W 063°05'0 0.0
2017-Mar-06 09:33N 18°04' W 063°05'0 0.0
2017-Mar-06 08:30N 18°04' W 063°05'0 0.0
2017-Mar-06 07:33N 18°04' W 063°05'0 0.0
2017-Mar-06 06:30N 18°04' W 063°05'0 0.0
2017-Mar-06 05:15N 18°04' W 063°05'0 0.0
2017-Mar-06 04:33N 18°04' W 063°05'0 0.0
2017-Mar-06 03:33N 18°04' W 063°05'0 0.0
2017-Mar-06 02:33N 18°04' W 063°05'0 0.0
2017-Mar-06 01:33N 18°04' W 063°05'0 0.0
2017-Mar-06 00:33N 18°04' W 063°05'0 0.0
2017-Mar-05 23:33N 18°04' W 063°05'0 0.0
2017-Mar-05 22:33N 18°04' W 063°05'0 0.0
2017-Mar-05 21:18N 18°04' W 063°05'0 0.0
2017-Mar-05 20:06N 18°04' W 063°05'0 0.0
2017-Mar-05 19:24N 18°04' W 063°05'0 0.0
2017-Mar-05 18:24N 18°04' W 063°05'0 0.0
2017-Mar-05 17:27N 18°04' W 063°05'0 0.0
2017-Mar-05 16:27N 18°04' W 063°05'0 0.0
2017-Mar-05 15:27N 18°04' W 063°05'0 0.0
2017-Mar-05 14:27N 18°04' W 063°05'0 0.0
2017-Mar-05 13:30N 18°04' W 063°05'0 0.0
2017-Mar-05 12:18N 18°04' W 063°05'0 0.0
2017-Mar-05 11:33N 18°04' W 063°05'0 0.0
2017-Mar-05 10:33N 18°04' W 063°05'0 0.0
2017-Mar-05 09:33N 18°04' W 063°05'0 0.0
2017-Mar-05 08:33N 18°04' W 063°05'0 0.0
2017-Mar-05 07:33N 18°04' W 063°05'0 0.0
2017-Mar-05 06:33N 18°04' W 063°05'0 0.0
2017-Mar-05 05:21N 18°04' W 063°05'0 0.0
2017-Mar-05 04:24N 18°04' W 063°05'0 0.0
2017-Mar-05 03:27N 18°04' W 063°05'0 0.0
2017-Mar-05 02:27N 18°04' W 063°05'0 0.0
2017-Mar-05 01:27N 18°04' W 063°05'0 0.0
2017-Mar-05 00:27N 18°04' W 063°05'0 0.0
2017-Mar-04 23:30N 18°04' W 063°05'0 0.0
2017-Mar-04 22:30N 18°04' W 063°05'0 0.0
2017-Mar-04 21:33N 18°04' W 063°05'0 0.0
2017-Mar-04 20:33N 18°04' W 063°05'0 0.0
2017-Mar-04 19:33N 18°04' W 063°05'0 0.0
2017-Mar-04 18:33N 18°04' W 063°05'0 0.0
2017-Mar-04 17:21N 18°04' W 063°05'0 0.0
2017-Mar-04 16:33N 18°04' W 063°05'0 0.0
2017-Mar-04 15:24N 18°04' W 063°05'0 0.0
2017-Mar-04 14:24N 18°04' W 063°05'0 0.0
2017-Mar-04 13:27N 18°04' W 063°05'0 0.0
2017-Mar-04 12:24N 18°04' W 063°05'0 0.0
2017-Mar-04 11:27N 18°04' W 063°05'0 0.0
2017-Mar-04 10:30N 18°04' W 063°05'0 0.0
2017-Mar-04 09:27N 18°04' W 063°05'0 0.0
2017-Mar-04 08:33N 18°04' W 063°05'0 0.0
2017-Mar-04 07:33N 18°04' W 063°05'0 0.0
2017-Mar-04 05:33N 18°04' W 063°05'0 0.0
2017-Mar-04 04:33N 18°04' W 063°05'0 0.0
2017-Mar-04 03:19N 18°04' W 063°05'0 0.0
2017-Mar-04 02:28N 18°04' W 063°05'0 0.0
2017-Mar-04 01:28N 18°04' W 063°05'0 0.0
2017-Mar-04 00:31N 18°04' W 063°05'0 0.0
2017-Mar-03 23:31N 18°04' W 063°05'0 0.0
2017-Mar-03 22:31N 18°04' W 063°05'1 0.6
2017-Mar-03 21:33N 18°04' W 063°06'3 2.5
2017-Mar-03 20:29N 18°02' W 063°07'  
2017-Mar-01 15:32N 17°58' W 063°02'8 7.6
2017-Mar-01 14:32N 18°03' W 063°08'6 6.2
2017-Mar-01 13:32N 18°09' W 063°11'  
Track history (hours):
 
Tides and Currents Weather Stations Pressure Air Temp Water Temp Dewpoint Dewpoint Depression Visibility Wind Speed Wind Dir Waves Ship Positions

Maersk Constellation

Owner: MAERSK LINES LIMITED, Norfolk, VA. More information available from US FCC via Universal Licensing System and Coast Guard Vessel Documentation Center.

Last reported at 2017-Mar-06 15:27 UTC. Time now 2017-Mar-26 19:02 UTC.
Position N 18°04' W 063°05'.
Warning: this ship's position is 20 days out of date.

Type: Cargo ship. MMSI: 367477000.

Date/timePositionNaut miles runAvg speedWind from/ knotsBaromVisibWave heightAir tempDewpointWater temp
2017-Mar-06 15:27N 18°04' W 063°05'0 0.0
2017-Mar-06 14:27N 18°04' W 063°05'0 0.0
2017-Mar-06 13:30N 18°04' W 063°05'0 0.0
2017-Mar-06 12:30N 18°04' W 063°05'0 0.0
2017-Mar-06 11:30N 18°04' W 063°05'0 0.0
2017-Mar-06 10:33N 18°04' W 063°05'0 0.0
2017-Mar-06 09:33N 18°04' W 063°05'0 0.0
2017-Mar-06 08:30N 18°04' W 063°05'0 0.0
2017-Mar-06 07:33N 18°04' W 063°05'0 0.0
2017-Mar-06 06:30N 18°04' W 063°05'0 0.0
2017-Mar-06 05:15N 18°04' W 063°05'0 0.0
2017-Mar-06 04:33N 18°04' W 063°05'0 0.0
2017-Mar-06 03:33N 18°04' W 063°05'0 0.0
2017-Mar-06 02:33N 18°04' W 063°05'0 0.0
2017-Mar-06 01:33N 18°04' W 063°05'0 0.0
2017-Mar-06 00:33N 18°04' W 063°05'0 0.0
2017-Mar-05 23:33N 18°04' W 063°05'0 0.0
2017-Mar-05 22:33N 18°04' W 063°05'0 0.0
2017-Mar-05 21:18N 18°04' W 063°05'0 0.0
2017-Mar-05 20:06N 18°04' W 063°05'0 0.0
2017-Mar-05 19:24N 18°04' W 063°05'0 0.0
2017-Mar-05 18:24N 18°04' W 063°05'0 0.0
2017-Mar-05 17:27N 18°04' W 063°05'0 0.0
2017-Mar-05 16:27N 18°04' W 063°05'0 0.0
2017-Mar-05 15:27N 18°04' W 063°05'0 0.0
2017-Mar-05 14:27N 18°04' W 063°05'0 0.0
2017-Mar-05 13:30N 18°04' W 063°05'0 0.0
2017-Mar-05 12:18N 18°04' W 063°05'0 0.0
2017-Mar-05 11:33N 18°04' W 063°05'0 0.0
2017-Mar-05 10:33N 18°04' W 063°05'0 0.0
2017-Mar-05 09:33N 18°04' W 063°05'0 0.0
2017-Mar-05 08:33N 18°04' W 063°05'0 0.0
2017-Mar-05 07:33N 18°04' W 063°05'0 0.0
2017-Mar-05 06:33N 18°04' W 063°05'0 0.0
2017-Mar-05 05:21N 18°04' W 063°05'0 0.0
2017-Mar-05 04:24N 18°04' W 063°05'0 0.0
2017-Mar-05 03:27N 18°04' W 063°05'0 0.0
2017-Mar-05 02:27N 18°04' W 063°05'0 0.0
2017-Mar-05 01:27N 18°04' W 063°05'0 0.0
2017-Mar-05 00:27N 18°04' W 063°05'0 0.0
2017-Mar-04 23:30N 18°04' W 063°05'0 0.0
2017-Mar-04 22:30N 18°04' W 063°05'0 0.0
2017-Mar-04 21:33N 18°04' W 063°05'0 0.0
2017-Mar-04 20:33N 18°04' W 063°05'0 0.0
2017-Mar-04 19:33N 18°04' W 063°05'0 0.0
2017-Mar-04 18:33N 18°04' W 063°05'0 0.0
2017-Mar-04 17:21N 18°04' W 063°05'0 0.0
2017-Mar-04 16:33N 18°04' W 063°05'0 0.0
2017-Mar-04 15:24N 18°04' W 063°05'0 0.0
2017-Mar-04 14:24N 18°04' W 063°05'0 0.0
2017-Mar-04 13:27N 18°04' W 063°05'0 0.0
2017-Mar-04 12:24N 18°04' W 063°05'0 0.0
2017-Mar-04 11:27N 18°04' W 063°05'0 0.0
2017-Mar-04 10:30N 18°04' W 063°05'0 0.0
2017-Mar-04 09:27N 18°04' W 063°05'0 0.0
2017-Mar-04 08:33N 18°04' W 063°05'0 0.0
2017-Mar-04 07:33N 18°04' W 063°05'0 0.0
2017-Mar-04 05:33N 18°04' W 063°05'0 0.0
2017-Mar-04 04:33N 18°04' W 063°05'0 0.0
2017-Mar-04 03:19N 18°04' W 063°05'0 0.0
2017-Mar-04 02:28N 18°04' W 063°05'0 0.0
2017-Mar-04 01:28N 18°04' W 063°05'0 0.0
2017-Mar-04 00:31N 18°04' W 063°05'0 0.0
2017-Mar-03 23:31N 18°04' W 063°05'0 0.0
2017-Mar-03 22:31N 18°04' W 063°05'1 0.6
2017-Mar-03 21:33N 18°04' W 063°06'3 2.5
2017-Mar-03 20:29N 18°02' W 063°07'  
2017-Mar-01 15:32N 17°58' W 063°02'8 7.6
2017-Mar-01 14:32N 18°03' W 063°08'6 6.2
2017-Mar-01 13:32N 18°09' W 063°11'  

Dump ship's entire track history